createdAt,value
2019-04-04T00:00:14.362Z,12.98
2019-04-04T00:02:46.014Z,14.47
2019-04-04T00:05:16.204Z,15.83
2019-04-04T00:07:46.626Z,14.98
2019-04-04T00:10:16.923Z,15.45
2019-04-04T00:12:46.988Z,16.20
2019-04-04T00:15:17.021Z,13.08
2019-04-04T00:17:47.306Z,13.95
2019-04-04T00:20:17.627Z,14.38
2019-04-04T00:22:47.692Z,14.55
2019-04-04T00:25:17.957Z,14.68
2019-04-04T00:27:47.947Z,14.20
2019-04-04T00:30:18.563Z,14.58
2019-04-04T00:32:49.192Z,14.90
2019-04-04T00:35:19.493Z,15.00
2019-04-04T00:37:50.579Z,13.70
2019-04-04T00:40:21.511Z,14.38
2019-04-04T00:42:51.711Z,15.03
2019-04-04T00:45:22.121Z,14.75
2019-04-04T00:47:52.268Z,14.45
2019-04-04T00:50:22.512Z,15.10
2019-04-04T00:52:52.696Z,14.53
2019-04-04T00:55:22.925Z,14.45
2019-04-04T00:57:53.099Z,14.55
2019-04-04T01:00:24.025Z,15.10
2019-04-04T01:02:54.715Z,13.75
2019-04-04T01:05:26.296Z,14.07
2019-04-04T01:07:56.224Z,14.13
2019-04-04T01:10:26.654Z,14.45
2019-04-04T01:12:56.552Z,15.05
2019-04-04T01:15:26.747Z,15.25
2019-04-04T01:17:57.104Z,13.10
2019-04-04T01:20:27.256Z,14.35
2019-04-04T01:22:57.596Z,14.65
2019-04-04T01:25:27.752Z,14.55
2019-04-04T01:27:58.001Z,15.08
2019-04-04T01:30:27.977Z,14.28
2019-04-04T01:32:58.222Z,13.60
2019-04-04T01:35:28.221Z,14.75
2019-04-04T01:38:00.250Z,15.10
2019-04-04T01:40:32.872Z,15.00
2019-04-04T01:43:02.531Z,15.00
2019-04-04T01:45:32.605Z,14.50
2019-04-04T01:48:02.764Z,15.13
2019-04-04T01:50:32.808Z,14.07
2019-04-04T01:53:03.208Z,14.85
2019-04-04T01:55:34.950Z,15.38
2019-04-04T01:58:05.361Z,15.35
2019-04-04T02:00:35.400Z,14.55
2019-04-04T02:03:05.667Z,15.78
2019-04-04T02:05:35.815Z,15.25
2019-04-04T02:08:05.853Z,15.08
2019-04-04T02:10:36.091Z,15.03
2019-04-04T02:13:06.017Z,15.90
2019-04-04T02:15:36.327Z,15.93
2019-04-04T02:18:06.298Z,15.48
2019-04-04T02:20:36.719Z,15.25
2019-04-04T02:23:06.671Z,16.20
2019-04-04T02:25:36.816Z,15.93
2019-04-04T02:28:08.577Z,15.18
2019-04-04T02:30:38.644Z,14.85
2019-04-04T02:33:08.535Z,15.30
2019-04-04T02:35:42.785Z,15.72
2019-04-04T02:38:11.841Z,14.87
2019-04-04T02:40:42.352Z,16.02
2019-04-04T02:43:12.506Z,15.83
2019-04-04T02:45:42.822Z,15.25
2019-04-04T02:48:12.908Z,10.05
2019-04-04T02:50:43.287Z,15.18
2019-04-04T02:53:13.521Z,14.87
2019-04-04T02:55:43.890Z,14.55
2019-04-04T02:58:15.041Z,14.93
2019-04-04T03:00:45.407Z,16.35
2019-04-04T03:03:15.898Z,16.15
2019-04-04T03:05:50.827Z,15.18
2019-04-04T03:08:18.215Z,15.58
2019-04-04T03:10:49.452Z,16.87
2019-04-04T03:13:19.796Z,15.80
2019-04-04T03:15:50.148Z,15.65
2019-04-04T03:18:20.466Z,15.43
2019-04-04T03:20:50.924Z,15.58
2019-04-04T03:23:21.999Z,15.27
2019-04-04T03:25:52.174Z,16.20
2019-04-04T03:28:22.097Z,14.83
2019-04-04T03:31:01.347Z,16.05
2019-04-04T03:33:29.505Z,15.08
2019-04-04T03:35:57.612Z,15.18
2019-04-04T03:38:28.887Z,15.90
2019-04-04T03:40:59.021Z,17.62
2019-04-04T03:43:30.115Z,14.87
2019-04-04T03:46:01.805Z,17.15
2019-04-04T03:48:32.053Z,15.58
2019-04-04T03:51:04.898Z,16.23
2019-04-04T03:53:34.307Z,16.77
2019-04-04T03:56:06.105Z,17.37
2019-04-04T03:58:36.220Z,15.63
2019-04-04T04:01:06.721Z,15.98
2019-04-04T04:03:36.636Z,14.87
2019-04-04T04:06:09.032Z,16.05
2019-04-04T04:08:38.723Z,17.00
2019-04-04T04:11:08.859Z,16.23
2019-04-04T04:13:38.727Z,17.05
2019-04-04T04:16:09.292Z,17.35
2019-04-04T04:18:39.455Z,17.40
2019-04-04T04:21:10.884Z,15.65
2019-04-04T04:23:41.196Z,19.37
2019-04-04T04:26:11.447Z,17.32
2019-04-04T04:28:41.829Z,16.23
2019-04-04T04:31:15.371Z,16.37
2019-04-04T04:33:46.575Z,16.50
2019-04-04T04:36:16.846Z,15.68
2019-04-04T04:38:48.088Z,16.37
2019-04-04T04:41:20.443Z,15.78
2019-04-04T04:43:49.787Z,14.63
2019-04-04T04:46:19.758Z,13.72
2019-04-04T04:48:49.757Z,16.05
2019-04-04T04:51:20.056Z,16.15
2019-04-04T04:53:50.673Z,15.20
2019-04-04T04:56:21.291Z,14.65
2019-04-04T04:58:55.350Z,16.65
2019-04-04T05:01:24.719Z,15.13
2019-04-04T05:03:56.588Z,15.65
2019-04-04T05:06:26.903Z,16.48
2019-04-04T05:08:56.991Z,17.07
2019-04-04T05:11:27.077Z,16.10
2019-04-04T05:13:58.147Z,15.88
2019-04-04T05:16:29.129Z,15.15
2019-04-04T05:18:59.403Z,15.98
2019-04-04T05:21:29.479Z,16.65
2019-04-04T05:23:59.742Z,15.20
2019-04-04T05:26:29.993Z,16.42
2019-04-04T05:29:00.070Z,17.75
2019-04-04T05:31:30.361Z,15.15
2019-04-04T05:34:00.294Z,17.00
2019-04-04T05:36:30.557Z,15.58
2019-04-04T05:39:04.147Z,16.00
2019-04-04T05:41:37.218Z,16.42
2019-04-04T05:44:09.024Z,16.10
2019-04-04T05:46:38.288Z,17.55
2019-04-04T05:49:08.583Z,16.50
2019-04-04T05:51:39.072Z,15.65
2019-04-04T05:54:09.133Z,15.40
2019-04-04T05:56:39.379Z,15.32
2019-04-04T05:59:09.337Z,15.05
2019-04-04T06:01:39.693Z,16.52
2019-04-04T06:07:44.603Z,14.38
2019-04-04T06:16:35.013Z,15.72
2019-04-04T06:19:59.554Z,16.15
2019-04-04T06:25:23.859Z,18.30
2019-04-04T06:28:09.918Z,17.45
2019-04-04T06:30:47.958Z,21.15
2019-04-04T06:33:24.437Z,23.38
2019-04-04T06:35:56.652Z,18.98
2019-04-04T06:38:27.081Z,16.65
2019-04-04T06:41:03.228Z,18.65
2019-04-04T06:43:45.742Z,16.97
2019-04-04T06:49:19.694Z,19.95
2019-04-04T06:52:23.442Z,17.40
2019-04-04T06:54:55.284Z,13.62
2019-04-04T06:57:51.369Z,19.05
2019-04-04T07:06:58.948Z,14.87
2019-04-04T07:09:48.260Z,17.62
2019-04-04T07:12:29.716Z,16.25
2019-04-04T07:18:40.958Z,17.55
2019-04-04T07:21:23.185Z,16.87
2019-04-04T07:24:10.834Z,18.60
2019-04-04T07:29:48.431Z,16.03
2019-04-04T07:32:44.764Z,20.27
2019-04-04T07:35:28.050Z,18.35
2019-04-04T07:41:14.785Z,17.77
2019-04-04T07:43:51.616Z,20.15
2019-04-04T07:46:45.366Z,20.15
2019-04-04T07:49:41.521Z,19.65
2019-04-04T07:52:37.648Z,20.57
2019-04-04T08:04:57.487Z,21.60
2019-04-04T08:07:41.924Z,19.73
2019-04-04T08:10:23.192Z,19.85
2019-04-04T08:15:58.043Z,20.20
2019-04-04T08:18:40.448Z,21.02
2019-04-04T08:21:50.055Z,19.30
2019-04-04T08:24:35.860Z,19.17
2019-04-04T08:31:09.713Z,20.40
2019-04-04T08:33:22.363Z,18.90
2019-04-04T08:36:20.216Z,20.00
2019-04-04T08:39:07.123Z,18.27
2019-04-04T08:41:56.243Z,21.20
2019-04-04T08:44:44.210Z,18.90
2019-04-04T08:53:40.319Z,22.10
2019-04-04T09:05:55.380Z,19.52
2019-04-04T09:15:11.798Z,20.30
2019-04-04T09:18:05.584Z,20.68
2019-04-04T09:20:57.030Z,20.62
2019-04-04T09:27:31.450Z,20.92
2019-04-04T09:32:34.285Z,22.10
2019-04-04T09:33:24.284Z,20.25
2019-04-04T09:42:19.148Z,21.95
2019-04-04T09:45:31.417Z,19.40
2019-04-04T09:48:40.204Z,19.60
2019-04-04T09:51:09.259Z,20.32
2019-04-04T09:54:19.260Z,20.57
2019-04-04T10:00:43.112Z,21.87
2019-04-04T10:04:00.220Z,19.50
2019-04-04T10:07:42.498Z,19.75
2019-04-04T10:10:20.846Z,22.45
2019-04-04T10:13:07.135Z,19.57
2019-04-04T10:42:04.144Z,20.15
2019-04-04T10:48:06.228Z,20.57
2019-04-04T11:06:57.797Z,20.25
2019-04-04T11:09:41.835Z,20.88
2019-04-04T11:12:28.919Z,21.90
2019-04-04T11:15:07.280Z,20.27
2019-04-04T11:18:00.885Z,23.30
2019-04-04T11:20:47.684Z,25.10
2019-04-04T11:23:26.918Z,25.20
2019-04-04T11:26:12.238Z,20.27
2019-04-04T11:31:40.565Z,21.23
2019-04-04T11:34:29.757Z,22.35
2019-04-04T11:37:07.723Z,20.80
2019-04-04T11:42:53.850Z,22.07
2019-04-04T11:45:46.600Z,21.23
2019-04-04T11:48:32.758Z,21.10
2019-04-04T11:51:35.237Z,21.10
2019-04-04T11:54:18.640Z,22.10
2019-04-04T12:13:45.408Z,19.45
2019-04-04T12:28:06.178Z,19.05
2019-04-04T12:33:36.063Z,20.12
2019-04-04T12:36:34.744Z,21.12
2019-04-04T12:39:44.355Z,19.73
2019-04-04T12:45:58.136Z,20.17
2019-04-04T12:48:52.498Z,18.02
2019-04-04T12:51:28.443Z,19.57
2019-04-04T12:54:20.928Z,16.67
2019-04-04T13:00:47.619Z,20.85
2019-04-04T13:03:40.821Z,20.00
2019-04-04T13:06:19.095Z,19.92
2019-04-04T13:09:32.682Z,17.85
2019-04-04T13:12:03.568Z,15.65
2019-04-04T13:14:47.761Z,16.90
2019-04-04T13:21:10.374Z,25.00
2019-04-04T13:23:26.784Z,19.23
2019-04-04T13:26:24.434Z,19.25
2019-04-04T13:32:07.523Z,18.87
2019-04-04T13:34:59.594Z,22.13
2019-04-04T13:44:30.256Z,20.60
2019-04-04T13:46:53.852Z,19.30
2019-04-04T13:49:34.952Z,21.17
2019-04-04T13:52:43.258Z,19.87
2019-04-04T13:58:02.935Z,19.90
2019-04-04T14:00:40.460Z,20.48
2019-04-04T14:03:26.545Z,19.15
2019-04-04T14:06:05.624Z,19.92
2019-04-04T14:08:42.117Z,19.48
2019-04-04T14:11:14.297Z,15.90
2019-04-04T14:13:51.701Z,20.00
2019-04-04T14:16:37.896Z,19.95
2019-04-04T14:19:33.664Z,19.70
2019-04-04T14:22:09.176Z,20.25
2019-04-04T14:24:42.957Z,20.05
2019-04-04T14:27:20.732Z,18.77
2019-04-04T14:30:29.258Z,20.52
2019-04-04T14:33:07.414Z,20.57
2019-04-04T14:35:37.897Z,20.32
2019-04-04T14:38:09.442Z,18.32
2019-04-04T14:40:45.705Z,18.65
2019-04-04T14:43:25.584Z,20.75
2019-04-04T14:45:57.174Z,17.80
2019-04-04T14:48:34.317Z,20.05
2019-04-04T14:51:10.427Z,22.13
2019-04-04T14:53:55.895Z,21.87
2019-04-04T14:56:29.151Z,22.73
2019-04-04T15:01:54.723Z,22.35
2019-04-04T15:04:32.329Z,18.50
2019-04-04T15:07:08.135Z,20.27
2019-04-04T15:09:55.502Z,22.58
2019-04-04T15:12:31.066Z,19.75
2019-04-04T15:15:05.506Z,19.82
2019-04-04T15:17:35.297Z,21.62
2019-04-04T15:20:16.487Z,23.70
2019-04-04T15:22:51.331Z,22.85
2019-04-04T15:25:28.560Z,21.37
2019-04-04T15:28:00.838Z,24.60
2019-04-04T15:33:02.811Z,18.48
2019-04-04T15:35:39.306Z,21.77
2019-04-04T15:38:12.683Z,16.97
2019-04-04T15:40:54.719Z,22.58
2019-04-04T15:43:28.502Z,18.20
2019-04-04T15:46:03.863Z,19.75
2019-04-04T15:48:37.057Z,20.20
2019-04-04T15:51:10.386Z,22.05
2019-04-04T15:53:47.146Z,22.17
2019-04-04T15:56:19.620Z,19.70
2019-04-04T15:58:55.418Z,19.75
2019-04-04T16:01:26.240Z,22.55
2019-04-04T16:04:18.537Z,29.07
2019-04-04T16:07:35.934Z,48.20
2019-04-04T16:10:14.165Z,25.90
2019-04-04T16:12:49.689Z,18.07
2019-04-04T16:15:29.265Z,22.60
2019-04-04T16:18:09.134Z,21.97
2019-04-04T16:26:52.334Z,25.72
2019-04-04T16:29:33.052Z,26.15
2019-04-04T16:32:13.855Z,21.25
2019-04-04T16:34:55.644Z,25.20
2019-04-04T16:37:31.092Z,21.60
2019-04-04T16:40:37.170Z,24.70
2019-04-04T16:43:39.402Z,23.10
2019-04-04T16:46:02.716Z,22.77
2019-04-04T16:49:00.619Z,21.90
2019-04-04T16:51:49.519Z,21.93
2019-04-04T16:54:20.152Z,26.57
2019-04-04T16:56:50.264Z,22.52
2019-04-04T16:59:20.324Z,24.43
2019-04-04T17:01:50.420Z,26.87
2019-04-04T17:04:20.334Z,25.00
2019-04-04T17:06:50.641Z,25.62
2019-04-04T17:09:22.458Z,25.75
2019-04-04T17:11:52.545Z,27.62
2019-04-04T17:14:22.632Z,21.30
2019-04-04T17:16:52.613Z,32.73
2019-04-04T17:19:22.724Z,24.45
2019-04-04T17:21:52.658Z,25.68
2019-04-04T17:24:22.642Z,31.97
2019-04-04T17:26:52.879Z,31.37
2019-04-04T17:29:23.101Z,33.60
2019-04-04T17:31:53.813Z,34.73
2019-04-04T17:34:24.257Z,34.33
2019-04-04T17:36:54.474Z,23.98
2019-04-04T17:39:24.685Z,26.20
2019-04-04T17:41:54.870Z,25.45
2019-04-04T17:44:25.083Z,25.88
2019-04-04T17:46:55.096Z,23.22
2019-04-04T17:49:25.375Z,25.72
2019-04-04T17:51:57.118Z,24.12
2019-04-04T17:54:27.228Z,27.05
2019-04-04T17:56:57.251Z,40.28
2019-04-04T17:59:30.143Z,31.82
2019-04-04T18:01:59.028Z,38.17
2019-04-04T18:04:29.225Z,44.13
2019-04-04T18:06:59.519Z,37.05
2019-04-04T18:09:32.032Z,28.60
2019-04-04T18:14:31.335Z,36.90
2019-04-04T18:17:01.315Z,29.07
2019-04-04T18:19:32.523Z,30.45
2019-04-04T18:22:02.857Z,33.53
2019-04-04T18:24:33.473Z,36.63
2019-04-04T18:27:06.453Z,34.92
2019-04-04T18:29:36.452Z,31.30
2019-04-04T18:32:06.332Z,39.48
2019-04-04T18:34:36.333Z,32.90
2019-04-04T18:37:06.823Z,35.35
2019-04-04T18:39:36.943Z,30.20
2019-04-04T18:42:07.051Z,29.07
2019-04-04T18:44:37.105Z,31.45
2019-04-04T18:47:07.459Z,24.87
2019-04-04T18:49:37.773Z,26.75
2019-04-04T18:52:08.784Z,19.25
2019-04-04T18:54:39.013Z,27.45
2019-04-04T18:57:09.097Z,27.98
2019-04-04T18:59:39.739Z,28.30
2019-04-04T19:02:10.973Z,21.93
2019-04-04T19:04:40.935Z,26.80
2019-04-04T19:07:11.696Z,30.12
2019-04-04T19:09:42.048Z,22.73
2019-04-04T19:12:13.431Z,22.30
2019-04-04T19:14:43.357Z,21.15
2019-04-04T19:17:13.444Z,23.45
2019-04-04T19:19:43.495Z,24.30
2019-04-04T19:22:13.487Z,25.40
2019-04-04T19:24:43.988Z,23.38
2019-04-04T19:27:14.001Z,25.05
2019-04-04T19:29:44.524Z,23.85
2019-04-04T19:32:14.775Z,24.55
2019-04-04T19:34:45.110Z,20.35
2019-04-04T19:37:15.366Z,23.62
2019-04-04T19:39:45.574Z,21.87
2019-04-04T19:42:16.052Z,20.30
2019-04-04T19:44:53.678Z,21.87
2019-04-04T19:47:19.881Z,20.27
2019-04-04T19:49:51.446Z,20.77
2019-04-04T19:52:21.667Z,25.37
2019-04-04T19:54:51.812Z,21.48
2019-04-04T19:57:21.697Z,23.07
2019-04-04T19:59:51.940Z,23.73
2019-04-04T20:02:21.846Z,22.50
2019-04-04T20:04:51.908Z,19.98
2019-04-04T20:07:21.816Z,21.95
2019-04-04T20:12:31.017Z,23.00
2019-04-04T20:15:01.344Z,22.75
2019-04-04T20:17:31.445Z,23.10
2019-04-04T20:20:01.929Z,24.57
2019-04-04T20:22:32.523Z,22.82
2019-04-04T20:25:02.561Z,21.35
2019-04-04T20:27:32.763Z,19.40
2019-04-04T20:30:02.789Z,20.90
2019-04-04T20:32:33.273Z,21.50
2019-04-04T20:35:03.657Z,21.35
2019-04-04T20:37:36.026Z,24.35
2019-04-04T20:40:08.055Z,20.35
2019-04-04T20:42:40.739Z,22.17
2019-04-04T20:45:16.200Z,19.62
2019-04-04T20:47:46.983Z,22.93
2019-04-04T20:50:20.299Z,23.10
2019-04-04T20:52:52.405Z,20.92
2019-04-04T20:55:24.064Z,22.85
2019-04-04T20:57:56.158Z,20.55
2019-04-04T21:00:30.050Z,20.55
2019-04-04T21:03:02.127Z,20.50
2019-04-04T21:05:35.510Z,21.10
2019-04-04T21:08:06.101Z,19.67
2019-04-04T21:10:38.226Z,20.68
2019-04-04T21:13:10.613Z,20.62
2019-04-04T21:15:41.784Z,20.72
2019-04-04T21:18:16.135Z,21.02
2019-04-04T21:20:46.644Z,21.10
2019-04-04T21:23:19.700Z,20.48
2019-04-04T21:25:51.061Z,19.85
2019-04-04T21:28:22.797Z,19.87
2019-04-04T21:30:57.650Z,22.50
2019-04-04T21:33:28.406Z,21.68
2019-04-04T21:36:01.590Z,20.80
2019-04-04T21:38:31.917Z,23.62
2019-04-04T21:41:04.102Z,21.25
2019-04-04T21:43:36.311Z,23.57
2019-04-04T21:46:06.868Z,20.20
2019-04-04T21:51:15.247Z,23.62
2019-04-04T21:53:47.056Z,22.62
2019-04-04T21:56:20.821Z,23.05
2019-04-04T21:58:52.395Z,23.95
2019-04-04T22:01:23.751Z,23.32
2019-04-04T22:03:56.185Z,22.73
2019-04-04T22:06:32.825Z,23.62
2019-04-04T22:09:05.520Z,22.30
2019-04-04T22:11:41.549Z,20.68
2019-04-04T22:14:21.488Z,19.95
2019-04-04T22:16:49.958Z,21.05
2019-04-04T22:19:20.326Z,21.68
2019-04-04T22:21:53.494Z,20.60
2019-04-04T22:24:38.805Z,22.77
2019-04-04T22:33:05.181Z,22.25
2019-04-04T22:35:47.198Z,20.88
2019-04-04T22:38:48.130Z,22.00
2019-04-04T22:41:25.127Z,21.48
2019-04-04T22:44:34.035Z,22.93
2019-04-04T22:46:58.765Z,23.70
2019-04-04T22:49:41.215Z,22.25
2019-04-04T22:52:35.347Z,24.23
2019-04-04T22:55:14.327Z,24.60
2019-04-04T22:58:01.315Z,25.95
2019-04-04T23:03:52.259Z,27.30
2019-04-04T23:06:36.737Z,24.37
2019-04-04T23:09:16.366Z,24.07
2019-04-04T23:11:48.650Z,24.23
2019-04-04T23:17:04.048Z,26.12
2019-04-04T23:19:44.588Z,25.00
2019-04-04T23:22:29.540Z,21.95
2019-04-04T23:25:07.971Z,22.82
2019-04-04T23:27:41.954Z,23.50
2019-04-04T23:30:23.804Z,23.30
2019-04-04T23:32:57.676Z,22.25
2019-04-04T23:35:36.207Z,21.90
2019-04-04T23:38:21.017Z,20.65
2019-04-04T23:41:00.925Z,22.25
2019-04-04T23:43:40.178Z,22.90
